createdAt,value
2022-08-17T00:00:43.532Z,10.27
2022-08-17T00:03:11.348Z,10.57
2022-08-17T00:05:45.191Z,9.68
2022-08-17T00:08:13.258Z,10.35
2022-08-17T00:10:41.265Z,9.90
2022-08-17T00:13:09.746Z,9.82
2022-08-17T00:15:39.669Z,10.40
2022-08-17T00:18:53.867Z,9.88
2022-08-17T00:20:56.058Z,10.13
2022-08-17T00:23:24.272Z,10.68
2022-08-17T00:25:52.537Z,11.27
2022-08-17T00:28:20.948Z,10.52
2022-08-17T00:30:53.411Z,10.10
2022-08-17T00:33:25.564Z,9.63
2022-08-17T00:35:55.563Z,9.77
2022-08-17T00:38:24.350Z,9.13
2022-08-17T00:40:55.946Z,8.93
2022-08-17T00:43:33.084Z,8.63
2022-08-17T00:46:07.874Z,9.27
2022-08-17T00:48:36.283Z,8.27
2022-08-17T00:51:09.222Z,8.27
2022-08-17T00:53:41.890Z,9.23
2022-08-17T00:56:12.807Z,9.02
2022-08-17T00:58:41.443Z,9.23
2022-08-17T01:01:12.855Z,9.32
2022-08-17T01:03:51.554Z,10.02
2022-08-17T01:06:20.316Z,10.27
2022-08-17T01:08:48.115Z,10.77
2022-08-17T01:11:25.692Z,10.98
2022-08-17T01:13:53.685Z,10.55
2022-08-17T01:16:26.184Z,12.00
2022-08-17T01:18:56.733Z,10.90
2022-08-17T01:21:33.025Z,11.95
2022-08-17T01:24:02.345Z,14.18
2022-08-17T01:26:31.499Z,12.63
2022-08-17T01:28:59.697Z,12.68
2022-08-17T01:31:31.247Z,9.48
2022-08-17T01:34:01.866Z,10.48
2022-08-17T01:36:29.925Z,10.10
2022-08-17T01:38:57.894Z,11.43
2022-08-17T01:41:28.259Z,12.20
2022-08-17T01:44:00.687Z,12.68
2022-08-17T01:46:35.425Z,10.50
2022-08-17T01:49:07.654Z,9.25
2022-08-17T01:51:35.416Z,9.85
2022-08-17T01:54:09.487Z,10.18
2022-08-17T01:56:42.515Z,9.05
2022-08-17T01:59:10.350Z,9.50
2022-08-17T02:01:38.935Z,10.70
2022-08-17T02:04:08.395Z,10.35
2022-08-17T02:06:52.753Z,11.20
2022-08-17T02:09:24.078Z,9.98
2022-08-17T02:11:55.196Z,10.15
2022-08-17T02:14:25.331Z,9.98
2022-08-17T02:16:53.779Z,9.05
2022-08-17T02:19:21.859Z,9.30
2022-08-17T02:21:51.907Z,9.57
2022-08-17T02:24:58.754Z,9.98
2022-08-17T02:27:12.891Z,9.63
2022-08-17T02:29:40.616Z,9.63
2022-08-17T02:32:22.271Z,9.43
2022-08-17T02:34:55.897Z,9.18
2022-08-17T02:37:23.674Z,8.82
2022-08-17T02:39:51.664Z,10.30
2022-08-17T02:42:27.788Z,11.05
2022-08-17T02:44:55.535Z,11.30
2022-08-17T02:47:23.208Z,11.23
2022-08-17T02:49:54.411Z,11.35
2022-08-17T02:52:42.684Z,11.55
2022-08-17T02:55:13.782Z,12.65
2022-08-17T02:57:42.839Z,11.65
2022-08-17T03:00:14.814Z,10.20
2022-08-17T03:02:44.622Z,10.68
2022-08-17T03:05:15.006Z,11.10
2022-08-17T03:07:43.276Z,11.23
2022-08-17T03:10:12.227Z,12.38
2022-08-17T03:12:43.306Z,11.88
2022-08-17T03:15:13.472Z,12.02
2022-08-17T03:17:41.394Z,10.90
2022-08-17T03:20:10.334Z,10.38
2022-08-17T03:22:39.480Z,9.80
2022-08-17T03:25:10.686Z,9.32
2022-08-17T03:27:38.642Z,9.68
2022-08-17T03:30:13.538Z,9.32
2022-08-17T03:32:42.856Z,8.85
2022-08-17T03:35:12.578Z,8.98
2022-08-17T03:37:42.826Z,8.77
2022-08-17T03:40:12.429Z,10.15
2022-08-17T03:42:41.535Z,10.43
2022-08-17T03:45:15.628Z,10.18
2022-08-17T03:48:06.905Z,11.55
2022-08-17T03:50:52.388Z,10.98
2022-08-17T03:53:37.876Z,11.75
2022-08-17T03:56:23.665Z,12.18
2022-08-17T03:58:51.584Z,12.05
2022-08-17T04:01:20.673Z,10.77
2022-08-17T04:03:48.412Z,12.00
2022-08-17T04:06:16.569Z,11.45
2022-08-17T04:08:44.207Z,10.75
2022-08-17T04:11:11.862Z,12.07
2022-08-17T04:13:39.453Z,11.68
2022-08-17T04:16:07.432Z,12.02
2022-08-17T04:18:36.434Z,11.40
2022-08-17T04:21:04.143Z,13.07
2022-08-17T04:23:33.743Z,12.55
2022-08-17T04:26:01.731Z,12.63
2022-08-17T04:28:29.990Z,12.35
2022-08-17T04:30:58.442Z,13.20
2022-08-17T04:33:27.813Z,13.63
2022-08-17T04:35:59.826Z,14.38
2022-08-17T04:38:29.905Z,13.23
2022-08-17T04:41:15.787Z,10.35
2022-08-17T04:43:44.633Z,13.10
2022-08-17T04:46:14.497Z,10.20
2022-08-17T04:48:44.313Z,11.77
2022-08-17T04:51:16.135Z,13.68
2022-08-17T04:53:46.570Z,11.93
2022-08-17T04:56:22.242Z,9.73
2022-08-17T04:58:53.874Z,10.07
2022-08-17T05:01:24.593Z,9.68
2022-08-17T05:03:53.484Z,9.43
2022-08-17T05:06:23.395Z,9.88
2022-08-17T05:08:51.071Z,10.90
2022-08-17T05:11:19.123Z,9.35
2022-08-17T05:13:49.998Z,10.50
2022-08-17T05:16:19.010Z,9.93
2022-08-17T05:18:47.250Z,9.40
2022-08-17T05:21:16.066Z,10.23
2022-08-17T05:23:50.329Z,10.77
2022-08-17T05:26:26.658Z,10.32
2022-08-17T05:28:57.239Z,9.93
2022-08-17T05:31:28.212Z,8.40
2022-08-17T05:33:55.990Z,9.48
2022-08-17T05:36:41.808Z,9.60
2022-08-17T05:39:16.292Z,8.55
2022-08-17T05:41:45.532Z,9.07
2022-08-17T05:44:13.165Z,8.77
2022-08-17T05:46:44.809Z,9.13
2022-08-17T05:49:14.824Z,8.40
2022-08-17T05:52:00.886Z,7.68
2022-08-17T05:54:39.952Z,8.20
2022-08-17T05:57:39.506Z,9.15
2022-08-17T06:00:17.000Z,9.40
2022-08-17T06:02:59.372Z,8.35
2022-08-17T06:05:39.159Z,8.10
2022-08-17T06:08:14.055Z,9.45
2022-08-17T06:10:48.111Z,8.55
2022-08-17T06:13:23.949Z,9.63
2022-08-17T06:16:03.006Z,9.00
2022-08-17T06:18:37.529Z,9.30
2022-08-17T06:21:08.207Z,9.55
2022-08-17T06:23:39.617Z,10.43
2022-08-17T06:26:13.879Z,11.27
2022-08-17T06:28:48.034Z,11.75
2022-08-17T06:31:22.536Z,11.45
2022-08-17T06:33:51.363Z,12.32
2022-08-17T06:36:40.101Z,11.80
2022-08-17T06:39:26.572Z,11.13
2022-08-17T06:42:05.542Z,11.93
2022-08-17T06:44:49.634Z,10.95
2022-08-17T06:47:28.908Z,11.70
2022-08-17T06:50:09.156Z,12.20
2022-08-17T06:52:46.326Z,11.35
2022-08-17T06:55:21.249Z,12.13
2022-08-17T06:57:52.565Z,12.25
2022-08-17T07:00:23.857Z,11.77
2022-08-17T07:02:57.154Z,11.07
2022-08-17T07:05:27.800Z,10.73
2022-08-17T07:08:02.532Z,11.30
2022-08-17T07:10:36.526Z,10.10
2022-08-17T07:13:29.490Z,9.68
2022-08-17T07:16:07.317Z,9.50
2022-08-17T07:18:34.967Z,9.30
2022-08-17T07:21:14.216Z,8.18
2022-08-17T07:24:01.820Z,7.05
2022-08-17T07:26:29.782Z,7.95
2022-08-17T07:29:02.272Z,6.82
2022-08-17T07:31:33.681Z,6.80
2022-08-17T07:34:08.609Z,4.75
2022-08-17T07:36:36.499Z,6.07
2022-08-17T07:39:05.442Z,6.97
2022-08-17T07:41:57.598Z,6.15
2022-08-17T07:44:28.737Z,6.22
2022-08-17T07:47:14.750Z,6.28
2022-08-17T07:49:46.082Z,5.93
2022-08-17T07:52:50.619Z,4.35
2022-08-17T07:55:27.686Z,4.70
2022-08-17T07:57:57.904Z,5.88
2022-08-17T08:00:32.123Z,5.40
2022-08-17T08:03:05.949Z,5.30
2022-08-17T08:05:50.583Z,5.03
2022-08-17T08:08:27.985Z,4.90
2022-08-17T08:11:02.666Z,5.13
2022-08-17T08:13:32.317Z,4.38
2022-08-17T08:16:26.454Z,4.85
2022-08-17T08:18:57.989Z,4.90
2022-08-17T08:21:37.156Z,4.60
2022-08-17T08:24:23.538Z,3.92
2022-08-17T08:26:57.983Z,5.13
2022-08-17T08:29:31.299Z,4.78
2022-08-17T08:32:10.412Z,5.07
2022-08-17T08:35:02.314Z,4.25
2022-08-17T08:37:43.561Z,4.25
2022-08-17T08:40:29.840Z,5.00
2022-08-17T08:43:08.335Z,5.18
2022-08-17T08:45:47.132Z,5.03
2022-08-17T08:48:53.015Z,5.15
2022-08-17T08:51:34.811Z,4.75
2022-08-17T08:54:09.975Z,5.03
2022-08-17T08:57:11.614Z,5.68
2022-08-17T08:59:35.094Z,5.88
2022-08-17T09:02:23.373Z,5.78
2022-08-17T09:05:14.236Z,5.50
2022-08-17T09:07:56.243Z,5.07
2022-08-17T09:10:30.733Z,5.43
2022-08-17T09:13:10.282Z,5.50
2022-08-17T09:15:43.501Z,5.50
2022-08-17T09:19:03.411Z,4.90
2022-08-17T09:21:12.009Z,3.97
2022-08-17T09:23:49.563Z,3.42
2022-08-17T09:26:22.811Z,3.80
2022-08-17T09:28:53.674Z,3.70
2022-08-17T09:31:26.829Z,3.50
2022-08-17T09:34:00.074Z,2.78
2022-08-17T09:36:34.473Z,3.17
2022-08-17T09:39:07.367Z,2.88
2022-08-17T09:41:49.302Z,3.22
2022-08-17T09:44:25.662Z,2.60
2022-08-17T09:47:00.030Z,2.90
2022-08-17T09:49:32.671Z,3.10
2022-08-17T09:52:06.819Z,2.97
2022-08-17T09:54:39.845Z,2.90
2022-08-17T09:57:31.527Z,2.95
2022-08-17T10:00:16.669Z,3.47
2022-08-17T10:03:08.679Z,3.30
2022-08-17T10:05:46.438Z,3.67
2022-08-17T10:08:23.915Z,3.45
2022-08-17T10:11:06.841Z,2.72
2022-08-17T10:13:53.210Z,3.47
2022-08-17T10:16:27.833Z,2.55
2022-08-17T10:19:04.161Z,3.50
2022-08-17T10:22:01.373Z,3.63
2022-08-17T10:25:23.829Z,2.90
2022-08-17T10:27:55.627Z,3.08
2022-08-17T10:30:27.614Z,3.80
2022-08-17T10:32:59.311Z,3.30
2022-08-17T10:35:34.218Z,2.80
2022-08-17T10:38:32.203Z,3.45
2022-08-17T10:41:07.604Z,3.40
2022-08-17T10:43:55.836Z,3.30
2022-08-17T10:46:52.335Z,3.88
2022-08-17T10:49:27.914Z,3.40
2022-08-17T10:51:57.952Z,2.65
2022-08-17T10:54:38.726Z,3.03
2022-08-17T10:57:37.355Z,3.35
2022-08-17T11:00:10.166Z,3.55
2022-08-17T11:02:50.223Z,3.42
2022-08-17T11:05:43.683Z,3.58
2022-08-17T11:08:36.259Z,3.30
2022-08-17T11:11:34.648Z,3.20
2022-08-17T11:14:17.009Z,3.55
2022-08-17T11:16:54.885Z,2.85
2022-08-17T11:19:44.376Z,2.22
2022-08-17T11:22:57.858Z,2.88
2022-08-17T11:25:35.072Z,2.60
2022-08-17T11:28:08.794Z,3.00
2022-08-17T11:30:52.065Z,2.72
2022-08-17T11:33:55.664Z,3.08
2022-08-17T11:36:49.103Z,2.50
2022-08-17T11:39:36.013Z,3.03
2022-08-17T11:42:07.023Z,3.15
2022-08-17T11:44:45.366Z,2.78
2022-08-17T11:47:38.662Z,2.90
2022-08-17T11:51:12.717Z,2.60
2022-08-17T11:54:31.040Z,2.58
2022-08-17T11:56:52.822Z,2.72
2022-08-17T11:59:59.113Z,2.78
2022-08-17T12:02:47.545Z,2.50
2022-08-17T12:05:35.595Z,2.83
2022-08-17T12:08:12.746Z,2.80
2022-08-17T12:11:01.168Z,3.15
2022-08-17T12:13:34.627Z,3.20
2022-08-17T12:16:09.334Z,2.72
2022-08-17T12:18:41.918Z,2.70
2022-08-17T12:21:23.547Z,3.00
2022-08-17T12:23:57.943Z,3.08
2022-08-17T12:26:30.287Z,3.03
2022-08-17T12:29:02.111Z,2.85
2022-08-17T12:31:35.402Z,2.65
2022-08-17T12:34:05.965Z,2.88
2022-08-17T12:36:34.694Z,2.75
2022-08-17T12:39:12.979Z,3.08
2022-08-17T12:41:44.961Z,3.00
2022-08-17T12:44:16.457Z,2.88
2022-08-17T12:46:54.083Z,2.72
2022-08-17T12:49:28.971Z,2.90
2022-08-17T12:52:05.710Z,2.97
2022-08-17T12:54:41.210Z,2.70
2022-08-17T12:57:14.095Z,3.00
2022-08-17T12:59:45.258Z,3.15
2022-08-17T13:02:22.976Z,2.50
2022-08-17T13:04:52.041Z,3.17
2022-08-17T13:07:31.754Z,3.03
2022-08-17T13:10:00.018Z,2.38
2022-08-17T13:12:29.939Z,2.65
2022-08-17T13:14:58.406Z,2.60
2022-08-17T13:17:29.458Z,2.75
2022-08-17T13:19:58.787Z,2.50
2022-08-17T13:22:29.294Z,3.10
2022-08-17T13:25:03.872Z,2.83
2022-08-17T13:27:32.582Z,2.80
2022-08-17T13:30:05.747Z,2.97
2022-08-17T13:32:37.261Z,2.90
2022-08-17T13:35:44.268Z,2.97
2022-08-17T13:38:36.534Z,2.92
2022-08-17T13:41:07.394Z,2.72
2022-08-17T13:43:45.526Z,2.80
2022-08-17T13:46:20.328Z,2.80
2022-08-17T13:48:59.255Z,2.50
2022-08-17T13:51:35.479Z,2.28
2022-08-17T13:54:28.705Z,2.67
2022-08-17T13:57:02.258Z,2.90
2022-08-17T13:59:54.218Z,2.90
2022-08-17T14:02:27.210Z,3.10
2022-08-17T14:05:02.058Z,2.67
2022-08-17T14:07:37.949Z,3.22
2022-08-17T14:10:12.801Z,3.00
2022-08-17T14:12:43.062Z,2.70
2022-08-17T14:15:12.541Z,2.55
2022-08-17T14:17:40.166Z,3.40
2022-08-17T14:20:11.045Z,2.47
2022-08-17T14:22:44.255Z,3.00
2022-08-17T14:25:14.757Z,2.67
2022-08-17T14:27:52.838Z,3.25
2022-08-17T14:30:22.894Z,2.97
2022-08-17T14:32:51.917Z,2.47
2022-08-17T14:35:22.241Z,2.92
2022-08-17T14:37:51.618Z,2.92
2022-08-17T14:40:24.701Z,2.85
2022-08-17T14:42:55.128Z,3.67
2022-08-17T14:45:30.058Z,3.10
2022-08-17T14:48:01.512Z,2.83
2022-08-17T14:50:29.220Z,2.65
2022-08-17T14:52:58.328Z,3.00
2022-08-17T14:55:32.416Z,3.03
2022-08-17T14:58:00.134Z,3.10
2022-08-17T15:00:28.546Z,3.03
2022-08-17T15:02:58.503Z,2.85
2022-08-17T15:05:32.468Z,3.25
2022-08-17T15:08:02.824Z,3.40
2022-08-17T15:10:31.237Z,3.20
2022-08-17T15:13:00.145Z,3.53
2022-08-17T15:15:28.831Z,3.85
2022-08-17T15:17:57.223Z,3.67
2022-08-17T15:20:27.968Z,3.38
2022-08-17T15:22:57.179Z,3.28
2022-08-17T15:25:28.144Z,3.00
2022-08-17T15:27:56.588Z,3.35
2022-08-17T15:30:25.688Z,3.20
2022-08-17T15:32:55.289Z,3.40
2022-08-17T15:35:27.809Z,3.60
2022-08-17T15:37:57.731Z,4.00
2022-08-17T15:40:26.956Z,3.90
2022-08-17T15:42:54.899Z,3.67
2022-08-17T15:45:26.969Z,4.00
2022-08-17T15:47:54.979Z,3.85
2022-08-17T15:50:22.921Z,3.80
2022-08-17T15:52:57.935Z,3.75
2022-08-17T15:55:29.382Z,3.47
2022-08-17T15:57:57.136Z,3.53
2022-08-17T16:00:25.872Z,4.13
2022-08-17T16:03:46.347Z,3.85
2022-08-17T16:05:44.028Z,3.97
2022-08-17T16:08:20.195Z,3.80
2022-08-17T16:10:50.993Z,3.90
2022-08-17T16:13:19.620Z,3.90
2022-08-17T16:15:57.094Z,4.03
2022-08-17T16:18:28.481Z,4.10
2022-08-17T16:20:56.446Z,3.92
2022-08-17T16:23:24.156Z,4.30
2022-08-17T16:25:54.597Z,3.75
2022-08-17T16:28:35.778Z,3.88
2022-08-17T16:31:08.193Z,4.47
2022-08-17T16:33:39.340Z,3.85
2022-08-17T16:36:08.944Z,3.90
2022-08-17T16:38:37.245Z,3.80
2022-08-17T16:41:07.023Z,3.90
2022-08-17T16:43:36.058Z,3.42
2022-08-17T16:46:03.790Z,3.95
2022-08-17T16:48:31.878Z,4.60
2022-08-17T16:51:03.390Z,3.72
2022-08-17T16:53:33.583Z,4.07
2022-08-17T16:56:01.248Z,5.40
2022-08-17T16:58:30.261Z,4.30
2022-08-17T17:00:59.281Z,4.15
2022-08-17T17:03:30.062Z,3.85
2022-08-17T17:06:07.154Z,4.07
2022-08-17T17:08:43.607Z,4.30
2022-08-17T17:11:15.516Z,4.47
2022-08-17T17:13:54.096Z,4.10
2022-08-17T17:16:27.445Z,4.03
2022-08-17T17:19:09.286Z,4.35
2022-08-17T17:21:45.130Z,4.35
2022-08-17T17:24:18.005Z,4.90
2022-08-17T17:27:07.512Z,4.43
2022-08-17T17:29:51.303Z,4.65
2022-08-17T17:32:26.384Z,4.40
2022-08-17T17:35:02.146Z,4.65
2022-08-17T17:37:35.235Z,4.47
2022-08-17T17:40:09.470Z,4.78
2022-08-17T17:42:41.370Z,4.45
2022-08-17T17:45:19.910Z,4.15
2022-08-17T17:47:48.487Z,4.57
2022-08-17T17:50:18.142Z,4.05
2022-08-17T17:52:59.222Z,4.50
2022-08-17T17:55:39.468Z,4.63
2022-08-17T17:58:26.527Z,4.35
2022-08-17T18:01:10.783Z,4.03
2022-08-17T18:03:54.538Z,4.32
2022-08-17T18:06:30.494Z,4.68
2022-08-17T18:09:10.255Z,4.22
2022-08-17T18:11:53.910Z,4.65
2022-08-17T18:14:42.225Z,4.70
2022-08-17T18:17:14.387Z,4.25
2022-08-17T18:19:42.238Z,4.43
2022-08-17T18:22:14.159Z,4.72
2022-08-17T18:24:44.205Z,4.63
2022-08-17T18:27:25.186Z,5.13
2022-08-17T18:29:53.991Z,4.85
2022-08-17T18:32:35.648Z,5.05
2022-08-17T18:35:28.538Z,4.95
2022-08-17T18:37:59.071Z,5.13
2022-08-17T18:40:35.150Z,5.22
2022-08-17T18:43:07.445Z,4.70
2022-08-17T18:45:39.532Z,4.80
2022-08-17T18:48:23.690Z,5.65
2022-08-17T18:50:54.199Z,4.85
2022-08-17T18:53:35.845Z,5.03
2022-08-17T18:56:30.647Z,5.38
2022-08-17T18:59:14.079Z,5.47
2022-08-17T19:01:59.900Z,5.70
2022-08-17T19:04:35.578Z,5.85
2022-08-17T19:07:26.044Z,6.40
2022-08-17T19:09:58.252Z,6.40
2022-08-17T19:12:34.575Z,6.18
2022-08-17T19:15:03.534Z,6.35
2022-08-17T19:17:39.142Z,6.45
2022-08-17T19:20:16.794Z,7.25
2022-08-17T19:22:58.632Z,6.00
2022-08-17T19:25:30.205Z,7.07
2022-08-17T19:28:12.623Z,6.88
2022-08-17T19:30:51.455Z,6.82
2022-08-17T19:33:19.456Z,6.60
2022-08-17T19:36:00.290Z,6.70
2022-08-17T19:38:43.274Z,7.25
2022-08-17T19:41:19.402Z,6.93
2022-08-17T19:44:15.232Z,6.95
2022-08-17T19:46:56.117Z,7.15
2022-08-17T19:49:41.415Z,7.15
2022-08-17T19:52:36.298Z,7.22
2022-08-17T19:55:10.216Z,7.13
2022-08-17T19:57:50.493Z,7.43
2022-08-17T20:00:20.129Z,7.70
2022-08-17T20:02:55.458Z,7.72
2022-08-17T20:05:27.864Z,6.57
2022-08-17T20:08:03.149Z,8.07
2022-08-17T20:10:39.831Z,7.38
2022-08-17T20:13:11.834Z,6.55
2022-08-17T20:15:42.493Z,8.60
2022-08-17T20:18:19.343Z,7.80
2022-08-17T20:20:56.357Z,8.13
2022-08-17T20:23:51.322Z,7.82
2022-08-17T20:26:23.721Z,9.25
2022-08-17T20:29:37.096Z,9.65
2022-08-17T20:32:18.438Z,9.85
2022-08-17T20:34:48.281Z,7.97
2022-08-17T20:37:32.388Z,9.35
2022-08-17T20:40:25.897Z,9.10
2022-08-17T20:43:01.431Z,8.02
2022-08-17T20:46:05.157Z,8.23
2022-08-17T20:48:38.973Z,8.15
2022-08-17T20:51:23.555Z,7.63
2022-08-17T20:54:05.575Z,8.30
2022-08-17T20:57:00.326Z,8.15
2022-08-17T20:59:57.264Z,8.82
2022-08-17T21:02:27.495Z,8.00
2022-08-17T21:05:34.825Z,9.05
2022-08-17T21:08:14.248Z,8.20
2022-08-17T21:10:46.394Z,8.55
2022-08-17T21:13:56.250Z,8.95
2022-08-17T21:16:36.268Z,8.77
2022-08-17T21:19:23.809Z,8.65
2022-08-17T21:22:04.353Z,8.35
2022-08-17T21:24:45.647Z,8.10
2022-08-17T21:27:30.186Z,8.90
2022-08-17T21:30:25.376Z,7.93
2022-08-17T21:33:20.367Z,8.85
2022-08-17T21:35:51.716Z,8.27
2022-08-17T21:38:23.470Z,9.45
2022-08-17T21:40:54.216Z,9.68
2022-08-17T21:43:26.513Z,8.90
2022-08-17T21:46:02.616Z,9.68
2022-08-17T21:48:32.972Z,8.38
2022-08-17T21:51:08.258Z,8.70
2022-08-17T21:53:40.998Z,8.60
2022-08-17T21:56:10.922Z,8.82
2022-08-17T21:58:40.948Z,8.52
2022-08-17T22:01:24.182Z,8.35
2022-08-17T22:04:01.602Z,8.57
2022-08-17T22:06:34.323Z,8.38
2022-08-17T22:09:14.364Z,8.40
2022-08-17T22:11:53.646Z,8.20
2022-08-17T22:14:25.668Z,8.63
2022-08-17T22:17:17.041Z,9.38
2022-08-17T22:19:48.903Z,9.02
2022-08-17T22:22:59.787Z,8.43
2022-08-17T22:25:28.472Z,8.82
2022-08-17T22:27:58.519Z,8.98
2022-08-17T22:30:33.681Z,8.70
2022-08-17T22:33:23.509Z,8.90
2022-08-17T22:36:10.544Z,9.05
2022-08-17T22:38:39.303Z,8.65
2022-08-17T22:41:34.814Z,8.65
2022-08-17T22:44:14.112Z,9.50
2022-08-17T22:46:51.564Z,8.57
2022-08-17T22:49:26.620Z,8.70
2022-08-17T22:52:03.537Z,8.65
2022-08-17T22:54:49.566Z,8.65
2022-08-17T22:57:36.303Z,9.02
2022-08-17T23:00:06.724Z,9.10
2022-08-17T23:02:35.859Z,8.80
2022-08-17T23:05:21.941Z,8.52
2022-08-17T23:07:53.263Z,9.65
2022-08-17T23:10:21.142Z,8.55
2022-08-17T23:12:48.973Z,8.48
2022-08-17T23:15:19.334Z,9.13
2022-08-17T23:17:47.660Z,8.77
2022-08-17T23:20:17.529Z,8.98
2022-08-17T23:22:52.507Z,8.73
2022-08-17T23:25:28.006Z,8.90
2022-08-17T23:27:57.420Z,8.60
2022-08-17T23:30:28.453Z,8.90
2022-08-17T23:32:56.853Z,9.05
2022-08-17T23:35:40.149Z,8.45
2022-08-17T23:38:10.415Z,8.65
2022-08-17T23:40:39.190Z,9.70
2022-08-17T23:43:23.732Z,9.18
2022-08-17T23:45:53.507Z,9.93
2022-08-17T23:48:30.359Z,9.82
2022-08-17T23:51:06.121Z,9.75
2022-08-17T23:53:36.365Z,9.13
2022-08-17T23:56:10.341Z,9.25
2022-08-17T23:58:39.606Z,9.65
